Time;durP1;ratioP1;P1;durP2;ratioP2;P2;SDS_P1;SDS_P2;PMS_P1;PMS_P2;Temp;Humidity;BMP_temperature;BMP_pressure;BME280_temperature;BME280_humidity;BME280_pressure;Samples;Min_cycle;Max_cycle;Signal;HPM_P1;HPM_P2
2023/01/04 00:01:13;;;;;;;0.98;0.80;;;8.40;91.70;;;;;;5008246;28;20176;-69
2023/01/04 00:03:39;;;;;;;12.82;2.92;;;8.40;91.90;;;;;;4991167;28;20052;-69
2023/01/04 00:06:06;;;;;;;0.40;0.40;;;8.40;91.80;;;;;;5008435;28;20054;-69
2023/01/04 00:08:33;;;;;;;0.00;0.00;;;8.40;91.70;;;;;;5008298;28;20406;-69
2023/01/04 00:11:04;;;;;;;0.05;0.05;;;8.40;91.80;;;;;;5007611;28;20042;-69
2023/01/04 00:13:30;;;;;;;0.30;0.30;;;8.40;91.90;;;;;;5008945;28;20124;-69
2023/01/04 00:15:56;;;;;;;0.10;0.10;;;8.40;92.10;;;;;;4987827;28;20124;-69
2023/01/04 00:18:22;;;;;;;0.10;0.10;;;8.40;92.10;;;;;;5007993;28;20053;-69
2023/01/04 00:20:48;;;;;;;0.08;0.08;;;8.40;92.10;;;;;;5007971;28;20042;-68
2023/01/04 00:23:13;;;;;;;0.00;0.00;;;8.40;92.20;;;;;;5009049;28;20446;-69
2023/01/04 00:25:39;;;;;;;0.10;0.10;;;8.40;92.20;;;;;;5007613;28;20399;-69
2023/01/04 00:28:05;;;;;;;0.00;0.00;;;8.40;92.30;;;;;;5009176;28;20041;-69
2023/01/04 00:30:30;;;;;;;0.00;0.00;;;8.40;92.30;;;;;;5011913;28;20132;-69
2023/01/04 00:33:14;;;;;;;0.40;0.40;;;8.50;92.30;;;;;;5011101;28;20044;-69
2023/01/04 00:36:10;;;;;;;0.00;0.00;;;8.40;92.20;;;;;;5011256;28;20095;-68
2023/01/04 00:38:36;;;;;;;0.00;0.00;;;8.50;92.30;;;;;;5012197;28;20050;-69
2023/01/04 00:41:03;;;;;;;0.00;0.00;;;8.40;92.50;;;;;;5011828;28;20410;-68
2023/01/04 00:43:28;;;;;;;0.00;0.00;;;8.40;92.50;;;;;;4995181;28;20449;-69
2023/01/04 00:45:54;;;;;;;0.08;0.08;;;8.40;92.70;;;;;;5009361;28;20046;-69
2023/01/04 00:48:20;;;;;;;0.00;0.00;;;8.40;92.60;;;;;;4984997;28;20057;-69
2023/01/04 00:50:47;;;;;;;0.10;0.10;;;8.40;92.70;;;;;;4999895;28;20050;-69
2023/01/04 00:53:14;;;;;;;0.03;0.03;;;8.40;92.80;;;;;;4992692;28;20415;-69
2023/01/04 00:55:40;;;;;;;0.10;0.10;;;8.40;92.80;;;;;;4996781;28;20037;-69
2023/01/04 00:58:06;;;;;;;0.00;0.00;;;8.40;92.90;;;;;;5001066;28;20561;-69
2023/01/04 01:00:33;;;;;;;0.00;0.00;;;8.40;93.00;;;;;;4992615;28;20038;-69
2023/01/04 01:02:58;;;;;;;0.00;0.00;;;8.40;92.90;;;;;;4992495;28;20050;-69
2023/01/04 01:05:24;;;;;;;0.00;0.00;;;8.50;92.90;;;;;;4959155;28;20049;-69
2023/01/04 01:07:50;;;;;;;0.00;0.00;;;8.50;93.00;;;;;;5002798;28;20045;-69
2023/01/04 01:10:15;;;;;;;0.00;0.00;;;8.50;92.90;;;;;;5010287;28;20414;-69
2023/01/04 01:12:41;;;;;;;0.00;0.00;;;8.50;92.90;;;;;;4993977;28;20116;-69
2023/01/04 01:15:07;;;;;;;0.00;0.00;;;8.50;93.00;;;;;;5007815;28;20042;-69
2023/01/04 01:17:33;;;;;;;0.08;0.08;;;8.50;93.10;;;;;;4993233;28;20411;-69
2023/01/04 01:19:59;;;;;;;0.00;0.00;;;8.60;93.10;;;;;;4974726;28;20403;-69
2023/01/04 01:22:25;;;;;;;0.00;0.00;;;8.50;93.20;;;;;;4987830;28;20050;-69
2023/01/04 01:24:51;;;;;;;0.00;0.00;;;8.50;93.20;;;;;;4993290;28;20076;-69
2023/01/04 01:27:17;;;;;;;0.00;0.00;;;8.50;93.30;;;;;;4991793;28;20050;-69
2023/01/04 01:29:42;;;;;;;0.10;0.10;;;8.50;93.30;;;;;;4991793;28;20380;-69
2023/01/04 01:32:08;;;;;;;0.00;0.00;;;8.40;93.50;;;;;;4992492;28;20050;-69
2023/01/04 01:34:33;;;;;;;0.00;0.00;;;8.50;93.60;;;;;;5005001;28;20076;-69
2023/01/04 01:36:59;;;;;;;0.00;0.00;;;8.50;93.60;;;;;;4984312;28;20050;-69
2023/01/04 01:39:24;;;;;;;0.00;0.00;;;8.50;93.70;;;;;;4993359;28;20503;-69
2023/01/04 01:41:50;;;;;;;0.00;0.00;;;8.50;93.70;;;;;;4985772;28;20042;-69
2023/01/04 01:44:41;;;;;;;0.00;0.00;;;8.60;93.70;;;;;;4991830;28;20053;-69
2023/01/04 01:47:12;;;;;;;0.08;0.08;;;8.60;93.90;;;;;;4996651;28;20089;-69
2023/01/04 01:49:40;;;;;;;0.00;0.00;;;8.60;93.80;;;;;;5011468;28;20426;-68
2023/01/04 01:52:15;;;;;;;0.00;0.00;;;8.60;94.00;;;;;;5003227;28;20449;-69
2023/01/04 01:54:46;;;;;;;0.00;0.00;;;8.60;94.00;;;;;;5013856;28;20046;-69
2023/01/04 01:57:18;;;;;;;0.00;0.00;;;8.60;94.10;;;;;;5013170;28;20045;-70
2023/01/04 01:59:46;;;;;;;0.00;0.00;;;8.70;94.20;;;;;;5011116;28;20714;-69
2023/01/04 02:02:12;;;;;;;0.10;0.10;;;8.70;94.20;;;;;;4995820;28;20061;-69
2023/01/04 02:04:42;;;;;;;0.00;0.00;;;8.70;94.20;;;;;;5012266;28;20402;-69
2023/01/04 02:07:09;;;;;;;0.00;0.00;;;8.80;94.00;;;;;;5007405;28;20545;-69
2023/01/04 02:09:36;;;;;;;0.00;0.00;;;8.80;94.10;;;;;;4992010;28;20052;-69
2023/01/04 02:12:01;;;;;;;0.00;0.00;;;8.70;94.20;;;;;;5009707;28;20066;-69
2023/01/04 02:14:28;;;;;;;0.00;0.00;;;8.80;94.30;;;;;;4994306;28;20470;-68
2023/01/04 02:17:30;;;;;;;0.00;0.00;;;8.80;94.30;;;;;;5010772;28;20129;-69
2023/01/04 02:20:19;;;;;;;0.00;0.00;;;8.80;94.30;;;;;;5010959;28;20042;-69
2023/01/04 02:23:14;;;;;;;0.00;0.00;;;8.90;94.30;;;;;;4994525;28;20521;-69
2023/01/04 02:26:21;;;;;;;0.00;0.00;;;8.90;94.30;;;;;;5010629;28;20536;-69
2023/01/04 02:29:16;;;;;;;0.00;0.00;;;8.90;94.30;;;;;;5011001;28;20045;-69
2023/01/04 02:31:53;;;;;;;0.00;0.00;;;8.90;94.40;;;;;;5029298;28;20095;-69
2023/01/04 02:34:30;;;;;;;0.00;0.00;;;8.90;94.40;;;;;;4979304;28;20049;-69
2023/01/04 02:37:17;;;;;;;0.00;0.00;;;9.00;94.40;;;;;;5010713;28;20045;-69
2023/01/04 02:40:22;;;;;;;0.00;0.00;;;8.90;94.60;;;;;;5011090;28;20121;-70
2023/01/04 02:45:55;;;;;;;0.00;0.00;;;9.10;94.80;;;;;;4991454;28;20132;-69
2023/01/04 02:51:34;;;;;;;0.00;0.00;;;9.10;94.60;;;;;;4986732;28;20487;-69
2023/01/04 02:54:14;;;;;;;0.00;0.00;;;9.20;94.60;;;;;;5007946;28;20042;-70
2023/01/04 02:57:06;;;;;;;0.00;0.00;;;9.20;94.80;;;;;;4997038;28;20045;-69
2023/01/04 02:59:46;;;;;;;;;;;9.30;94.70;;;;;;4996261;28;20046;-69
2023/01/04 03:06:15;;;;;;;0.00;0.00;;;9.30;94.80;;;;;;5010487;28;20050;-68
2023/01/04 03:09:01;;;;;;;0.00;0.00;;;9.20;94.80;;;;;;5009146;28;20046;-70
2023/01/04 03:14:28;;;;;;;0.00;0.00;;;9.20;94.90;;;;;;5009064;28;20049;-69
2023/01/04 03:16:55;;;;;;;0.00;0.00;;;9.30;94.80;;;;;;5009968;28;20045;-69
2023/01/04 03:35:21;;;;;;;0.03;0.03;;;9.30;94.70;;;;;;5000950;28;20053;-69
2023/01/04 03:36:17;;;;;;;0.08;0.08;;;9.40;95.10;;;;;;5009277;28;20054;-69
2023/01/04 03:50:46;;;;;;;0.00;0.00;;;9.30;95.40;;;;;;5010016;28;20053;-68
2023/01/04 03:53:13;;;;;;;0.00;0.00;;;9.40;95.50;;;;;;5009370;28;20490;-70
2023/01/04 03:55:40;;;;;;;0.00;0.00;;;9.40;95.60;;;;;;4990381;28;20908;-67
2023/01/04 03:58:06;;;;;;;0.00;0.00;;;9.60;95.60;;;;;;5009442;28;20042;-68
2023/01/04 04:00:33;;;;;;;0.00;0.00;;;9.60;95.60;;;;;;5009532;28;20425;-68
2023/01/04 04:03:07;;;;;;;0.57;0.57;;;9.70;95.70;;;;;;5010194;28;20053;-68
2023/01/04 04:08:28;;;;;;;0.00;0.00;;;9.80;95.70;;;;;;5011943;28;20137;-68
2023/01/04 04:10:56;;;;;;;0.00;0.00;;;9.90;95.80;;;;;;5013727;28;20073;-67
2023/01/04 04:13:22;;;;;;;0.00;0.00;;;9.90;95.80;;;;;;5012488;28;20057;-68
2023/01/04 04:15:50;;;;;;;0.00;0.00;;;9.90;95.90;;;;;;5013686;28;20038;-68
2023/01/04 04:18:16;;;;;;;0.00;0.00;;;10.00;96.00;;;;;;5012267;28;20505;-69
2023/01/04 04:20:41;;;;;;;0.00;0.00;;;10.10;96.00;;;;;;4996129;28;20088;-68
2023/01/04 04:23:07;;;;;;;0.00;0.00;;;10.10;96.00;;;;;;5013002;28;20038;-68
2023/01/04 04:25:33;;;;;;;0.00;0.00;;;10.10;96.00;;;;;;5013369;28;20037;-68
2023/01/04 04:27:58;;;;;;;0.00;0.00;;;10.20;95.90;;;;;;5010843;28;20038;-68
2023/01/04 04:30:24;;;;;;;0.00;0.00;;;10.20;95.80;;;;;;5013446;28;20664;-69
2023/01/04 04:32:49;;;;;;;0.00;0.00;;;10.30;95.80;;;;;;5012888;28;20034;-68
2023/01/04 04:35:15;;;;;;;0.00;0.00;;;10.40;95.80;;;;;;5013228;28;20045;-69
2023/01/04 04:37:40;;;;;;;0.00;0.00;;;10.40;95.80;;;;;;4991880;28;20042;-68
2023/01/04 04:41:36;;;;;;;12.65;1.75;;;10.60;95.70;;;;;;5005615;28;20041;-69
2023/01/04 04:42:52;;;;;;;0.00;0.00;;;10.60;95.70;;;;;;5012390;28;20502;-68
2023/01/04 04:45:18;;;;;;;0.00;0.00;;;10.60;95.60;;;;;;5011645;28;20053;-68
2023/01/04 04:47:43;;;;;;;0.00;0.00;;;10.70;95.60;;;;;;5011964;28;20050;-68
2023/01/04 04:50:09;;;;;;;0.00;0.00;;;10.70;95.50;;;;;;4994373;28;20089;-68
2023/01/04 04:52:34;;;;;;;0.00;0.00;;;10.60;95.50;;;;;;5013295;28;20042;-69
2023/01/04 04:55:00;;;;;;;0.00;0.00;;;10.70;95.40;;;;;;5012566;28;20073;-68
2023/01/04 04:57:25;;;;;;;0.10;0.10;;;10.70;95.50;;;;;;5012300;28;20088;-68
2023/01/04 04:59:51;;;;;;;0.00;0.00;;;10.80;95.50;;;;;;4993164;28;20130;-68
2023/01/04 05:02:16;;;;;;;0.00;0.00;;;10.80;95.30;;;;;;5012537;28;20042;-68
2023/01/04 05:04:42;;;;;;;0.00;0.00;;;10.80;95.40;;;;;;4993808;28;20081;-68
2023/01/04 05:07:07;;;;;;;0.00;0.00;;;10.70;95.40;;;;;;5012906;28;20651;-68
2023/01/04 05:09:33;;;;;;;0.00;0.00;;;10.70;95.50;;;;;;5010770;28;20050;-68
2023/01/04 05:14:43;;;;;;;0.00;0.00;;;10.60;95.50;;;;;;5002810;28;20049;-69
2023/01/04 05:17:08;;;;;;;0.10;0.10;;;10.60;95.50;;;;;;5012795;28;20053;-69
2023/01/04 05:19:34;;;;;;;0.00;0.00;;;10.50;95.40;;;;;;5010215;28;20120;-69
2023/01/04 05:21:59;;;;;;;0.00;0.00;;;10.40;95.50;;;;;;5011862;28;20104;-68
2023/01/04 05:24:25;;;;;;;0.00;0.00;;;10.40;95.40;;;;;;5010732;28;20053;-69
2023/01/04 05:26:50;;;;;;;0.47;0.47;;;10.30;95.40;;;;;;5011958;28;20042;-68
2023/01/04 05:32:00;;;;;;;0.00;0.00;;;10.20;95.50;;;;;;4993552;28;20515;-68
2023/01/04 05:34:26;;;;;;;0.03;0.03;;;10.20;95.50;;;;;;4992891;28;20076;-70
2023/01/04 05:36:51;;;;;;;0.00;0.00;;;10.20;95.60;;;;;;4997155;28;20090;-69
2023/01/04 05:39:17;;;;;;;0.00;0.00;;;10.20;95.60;;;;;;4972882;28;20046;-70
2023/01/04 05:44:27;;;;;;;1.65;1.08;;;10.10;95.70;;;;;;4993886;28;20053;-69
2023/01/04 05:46:52;;;;;;;0.00;0.00;;;10.10;95.70;;;;;;4961609;28;20514;-70
2023/01/04 05:49:18;;;;;;;0.00;0.00;;;10.10;95.70;;;;;;5011481;28;20046;-70
2023/01/04 05:51:43;;;;;;;0.00;0.00;;;10.10;95.80;;;;;;5002795;28;20056;-70
2023/01/04 05:54:09;;;;;;;0.00;0.00;;;10.10;95.80;;;;;;4977006;28;20463;-69
2023/01/04 05:56:34;;;;;;;0.00;0.00;;;10.00;95.80;;;;;;5003116;28;20049;-69
2023/01/04 05:59:00;;;;;;;0.00;0.00;;;10.10;96.00;;;;;;5008273;28;20046;-70
2023/01/04 06:01:26;;;;;;;0.10;0.10;;;10.10;95.90;;;;;;5003412;28;20061;-69
2023/01/04 06:03:51;;;;;;;0.00;0.00;;;10.20;96.00;;;;;;4993904;28;20081;-69
2023/01/04 06:06:17;;;;;;;1.00;0.57;;;10.30;96.20;;;;;;5010801;28;20062;-69
2023/01/04 06:08:43;;;;;;;0.00;0.00;;;10.40;96.20;;;;;;5004959;28;20046;-69
2023/01/04 06:11:08;;;;;;;0.00;0.00;;;10.50;96.10;;;;;;5005568;28;20037;-70
2023/01/04 06:13:34;;;;;;;0.00;0.00;;;10.60;96.10;;;;;;5006811;28;20045;-69
2023/01/04 06:15:59;;;;;;;16.45;1.05;;;10.60;96.00;;;;;;5007593;28;20506;-69
2023/01/04 06:18:25;;;;;;;0.10;0.10;;;10.70;96.00;;;;;;4977577;28;20222;-69
2023/01/04 06:20:50;;;;;;;0.00;0.00;;;10.70;95.90;;;;;;5010640;28;20046;-70
2023/01/04 06:23:16;;;;;;;0.00;0.00;;;10.70;95.90;;;;;;5007194;28;20096;-70
2023/01/04 06:25:42;;;;;;;0.00;0.00;;;10.70;95.70;;;;;;5002956;28;20042;-69
2023/01/04 06:28:07;;;;;;;0.00;0.00;;;10.70;95.70;;;;;;5008162;28;20053;-70
2023/01/04 06:30:34;;;;;;;0.00;0.00;;;10.80;95.70;;;;;;4974708;28;20153;-70
2023/01/04 06:32:59;;;;;;;0.00;0.00;;;10.70;95.60;;;;;;5007379;28;20113;-70
2023/01/04 06:35:25;;;;;;;0.00;0.00;;;10.70;95.70;;;;;;5008576;28;20046;-71
2023/01/04 06:37:50;;;;;;;0.08;0.08;;;10.80;95.50;;;;;;5007714;28;20057;-70
2023/01/04 06:40:16;;;;;;;0.00;0.00;;;10.80;95.50;;;;;;5007762;28;20121;-70
2023/01/04 06:42:44;;;;;;;1.88;1.75;;;10.80;95.50;;;;;;5007808;28;20054;-71
2023/01/04 06:45:11;;;;;;;0.10;0.10;;;10.90;95.40;;;;;;5009364;28;20128;-71
2023/01/04 06:47:37;;;;;;;0.10;0.10;;;10.80;95.30;;;;;;5008253;28;20050;-70
2023/01/04 06:50:03;;;;;;;0.00;0.00;;;11.00;95.30;;;;;;5008471;28;20096;-70
2023/01/04 06:52:29;;;;;;;0.00;0.00;;;11.00;95.10;;;;;;5005362;28;20100;-71
2023/01/04 06:54:55;;;;;;;0.00;0.00;;;11.00;95.00;;;;;;4974335;28;20038;-70
2023/01/04 06:57:20;;;;;;;0.00;0.00;;;11.00;94.90;;;;;;5006155;28;20085;-71
2023/01/04 06:59:46;;;;;;;4.00;1.75;;;11.00;94.90;;;;;;5006431;28;21345;-70
2023/01/04 07:02:15;;;;;;;0.00;0.00;;;11.00;94.80;;;;;;5004021;28;20092;-70
2023/01/04 07:04:41;;;;;;;0.00;0.00;;;11.00;94.80;;;;;;5008156;28;20057;-70
2023/01/04 07:07:07;;;;;;;0.55;0.45;;;11.00;94.80;;;;;;5002836;28;20526;-71
2023/01/04 07:09:32;;;;;;;0.00;0.00;;;11.00;94.80;;;;;;5006769;28;20050;-71
2023/01/04 07:11:58;;;;;;;0.00;0.00;;;11.00;94.80;;;;;;5008089;28;20050;-71
2023/01/04 07:14:24;;;;;;;0.00;0.00;;;11.00;94.70;;;;;;4970411;28;20062;-72
2023/01/04 07:16:49;;;;;;;0.00;0.00;;;11.00;94.80;;;;;;4989941;28;20065;-71
2023/01/04 07:19:15;;;;;;;0.00;0.00;;;11.00;94.80;;;;;;5006030;28;20041;-71
2023/01/04 07:21:41;;;;;;;0.00;0.00;;;10.90;94.80;;;;;;4989046;28;20058;-71
2023/01/04 07:24:07;;;;;;;0.00;0.00;;;10.90;94.80;;;;;;5001701;28;20042;-71
2023/01/04 07:26:33;;;;;;;2.17;0.65;;;10.90;94.80;;;;;;4990232;28;20054;-70
2023/01/04 07:29:14;;;;;;;0.00;0.00;;;10.90;94.80;;;;;;5008407;28;20046;-70
2023/01/04 07:31:40;;;;;;;0.08;0.08;;;10.90;94.80;;;;;;5009056;28;20085;-69
2023/01/04 07:34:06;;;;;;;0.80;0.80;;;10.90;94.90;;;;;;5009166;28;20509;-70
2023/01/04 07:36:31;;;;;;;0.00;0.00;;;10.80;95.00;;;;;;5008248;28;20133;-70
2023/01/04 07:39:00;;;;;;;0.20;0.20;;;10.90;95.00;;;;;;5003164;28;20427;-70
2023/01/04 07:41:26;;;;;;;0.00;0.00;;;10.80;94.90;;;;;;5009348;28;20104;-70
2023/01/04 07:43:51;;;;;;;0.00;0.00;;;10.80;95.10;;;;;;5008784;28;20033;-70
2023/01/04 07:46:17;;;;;;;0.08;0.08;;;10.80;95.10;;;;;;5008711;28;20622;-69
2023/01/04 07:48:43;;;;;;;0.17;0.17;;;10.90;95.10;;;;;;5008779;28;20049;-70
2023/01/04 07:51:08;;;;;;;0.00;0.00;;;10.80;95.40;;;;;;5009252;28;20054;-70
2023/01/04 07:53:34;;;;;;;0.17;0.17;;;10.90;95.50;;;;;;5007916;28;20045;-69
2023/01/04 07:55:59;;;;;;;0.00;0.00;;;10.80;95.30;;;;;;5011016;28;20053;-69
2023/01/04 07:58:30;;;;;;;0.57;0.57;;;10.90;95.30;;;;;;4995264;28;20052;-70
2023/01/04 08:00:56;;;;;;;0.00;0.00;;;10.90;95.20;;;;;;5016819;28;20494;-70
2023/01/04 08:03:22;;;;;;;0.65;0.65;;;10.90;95.30;;;;;;4992097;28;20062;-70
2023/01/04 08:05:48;;;;;;;0.63;0.63;;;10.90;95.20;;;;;;5009290;28;20513;-70
2023/01/04 08:08:13;;;;;;;0.00;0.00;;;10.90;95.30;;;;;;5009280;28;20057;-70
2023/01/04 08:10:39;;;;;;;0.00;0.00;;;10.90;95.40;;;;;;5006822;28;20054;-72
2023/01/04 08:13:04;;;;;;;0.00;0.00;;;10.90;95.40;;;;;;4997359;28;20062;-68
2023/01/04 08:15:30;;;;;;;0.00;0.00;;;10.90;95.40;;;;;;4999962;28;20034;-71
2023/01/04 08:17:56;;;;;;;0.00;0.00;;;10.90;95.40;;;;;;5016210;28;20054;-70
2023/01/04 08:20:21;;;;;;;0.00;0.00;;;10.90;95.40;;;;;;5009415;28;20491;-70
2023/01/04 08:22:47;;;;;;;0.00;0.00;;;10.90;95.40;;;;;;5011859;28;20072;-70
2023/01/04 08:25:12;;;;;;;0.00;0.00;;;10.90;95.50;;;;;;5011187;28;20487;-70
2023/01/04 08:27:38;;;;;;;0.00;0.00;;;10.90;95.60;;;;;;5000651;28;20106;-69
2023/01/04 08:30:04;;;;;;;0.60;0.52;;;10.90;95.60;;;;;;4989774;28;20038;-70
2023/01/04 08:32:30;;;;;;;0.15;0.15;;;10.90;95.50;;;;;;4989930;28;20054;-70
2023/01/04 08:34:55;;;;;;;0.00;0.00;;;10.90;95.60;;;;;;4993462;28;20092;-70
2023/01/04 08:37:21;;;;;;;0.00;0.00;;;10.80;95.50;;;;;;5008465;28;20115;-69
2023/01/04 08:39:47;;;;;;;0.00;0.00;;;10.90;95.50;;;;;;5009235;28;20050;-70
2023/01/04 08:42:12;;;;;;;0.00;0.00;;;10.90;95.60;;;;;;5008077;28;20093;-71
2023/01/04 08:44:38;;;;;;;0.00;0.00;;;10.90;95.60;;;;;;5001856;28;20042;-71
2023/01/04 08:47:03;;;;;;;0.00;0.00;;;10.90;95.50;;;;;;5008469;28;20407;-71
2023/01/04 08:49:29;;;;;;;5.25;0.80;;;11.00;95.40;;;;;;4973331;28;20050;-71
2023/01/04 08:51:54;;;;;;;0.40;0.40;;;11.00;95.40;;;;;;5012558;28;20065;-71
2023/01/04 08:54:21;;;;;;;0.00;0.00;;;10.90;95.40;;;;;;5012384;28;20053;-71
2023/01/04 08:56:47;;;;;;;1.13;1.08;;;10.90;95.50;;;;;;5009787;28;20132;-71
2023/01/04 08:59:13;;;;;;;2.15;1.20;;;11.00;95.40;;;;;;4964494;28;20137;-71
2023/01/04 09:01:39;;;;;;;2.20;1.30;;;11.00;95.40;;;;;;5002322;28;20058;-70
2023/01/04 09:04:04;;;;;;;0.73;0.50;;;11.00;95.50;;;;;;5011659;28;20046;-70
2023/01/04 09:06:30;;;;;;;0.00;0.00;;;11.00;95.50;;;;;;4994466;28;20050;-70
2023/01/04 09:08:57;;;;;;;0.00;0.00;;;10.90;95.50;;;;;;5007733;28;20487;-71
2023/01/04 09:11:23;;;;;;;0.00;0.00;;;11.00;95.50;;;;;;5008278;28;20068;-70
2023/01/04 09:13:56;;;;;;;0.00;0.00;;;11.10;95.50;;;;;;5012447;28;20037;-70
2023/01/04 09:16:22;;;;;;;0.00;0.00;;;11.10;95.40;;;;;;5012262;28;20506;-70
2023/01/04 09:18:48;;;;;;;0.00;0.00;;;11.10;95.30;;;;;;5012091;28;20045;-70
2023/01/04 09:21:19;;;;;;;0.00;0.00;;;11.10;95.30;;;;;;5011723;28;20117;-69
2023/01/04 09:23:45;;;;;;;3.00;2.50;;;11.10;95.30;;;;;;5011593;28;20400;-70
2023/01/04 09:26:13;;;;;;;0.00;0.00;;;11.20;95.20;;;;;;5008204;28;20047;-68
2023/01/04 09:28:39;;;;;;;0.85;0.85;;;11.20;95.10;;;;;;5010581;28;20030;-68
2023/01/04 09:31:11;;;;;;;0.00;0.00;;;11.30;95.10;;;;;;5010668;28;20050;-67
2023/01/04 09:33:37;;;;;;;0.00;0.00;;;11.20;95.00;;;;;;5010845;28;20042;-68
2023/01/04 09:36:04;;;;;;;0.00;0.00;;;11.30;95.10;;;;;;5009526;28;20490;-66
2023/01/04 09:38:31;;;;;;;0.28;0.28;;;11.30;95.10;;;;;;5009687;28;20399;-67
2023/01/04 09:41:05;;;;;;;19.33;0.57;;;11.40;95.00;;;;;;5003626;28;20613;-69
2023/01/04 09:43:41;;;;;;;0.00;0.00;;;11.50;95.00;;;;;;5008823;28;20569;-68
2023/01/04 09:46:11;;;;;;;0.00;0.00;;;11.40;94.90;;;;;;5008220;28;20418;-69
2023/01/04 09:48:41;;;;;;;0.00;0.00;;;11.40;94.80;;;;;;4990987;28;20135;-68
2023/01/04 09:51:12;;;;;;;9.45;1.88;;;11.50;94.80;;;;;;5005077;28;20045;-68
2023/01/04 09:53:56;;;;;;;0.00;0.00;;;11.60;94.60;;;;;;5010482;28;20049;-68
2023/01/04 09:56:34;;;;;;;0.17;0.17;;;11.60;94.50;;;;;;5005884;28;20047;-68
2023/01/04 09:59:05;;;;;;;0.00;0.00;;;11.60;94.60;;;;;;4990475;28;20046;-68
2023/01/04 10:01:47;;;;;;;0.00;0.00;;;11.60;94.50;;;;;;4999159;28;20050;-67
2023/01/04 10:04:25;;;;;;;6.35;2.15;;;11.60;94.40;;;;;;5001004;28;20457;-68
2023/01/04 10:06:51;;;;;;;0.00;0.00;;;11.70;94.30;;;;;;4988373;28;20088;-68
2023/01/04 10:09:18;;;;;;;0.00;0.00;;;11.70;94.20;;;;;;5010767;28;20042;-68
2023/01/04 10:12:13;;;;;;;0.00;0.00;;;11.70;94.10;;;;;;5000608;28;20495;-68
2023/01/04 10:14:41;;;;;;;0.00;0.00;;;11.70;94.10;;;;;;4991299;28;20042;-69
2023/01/04 10:17:22;;;;;;;0.00;0.00;;;11.70;94.10;;;;;;4995402;28;20046;-68
2023/01/04 10:20:03;;;;;;;0.30;0.30;;;11.80;94.00;;;;;;4990560;28;20068;-68
2023/01/04 10:22:51;;;;;;;0.00;0.00;;;11.80;93.90;;;;;;4990907;28;20053;-68
2023/01/04 10:25:27;;;;;;;22.92;1.05;;;11.80;94.00;;;;;;4992812;28;20053;-69
2023/01/04 10:27:59;;;;;;;0.00;0.00;;;11.80;94.00;;;;;;5007621;28;20153;-68
2023/01/04 10:30:45;;;;;;;0.32;0.32;;;11.80;93.90;;;;;;5001497;28;20047;-68
2023/01/04 10:33:14;;;;;;;0.00;0.00;;;11.90;93.90;;;;;;5007510;28;20053;-68
2023/01/04 10:35:44;;;;;;;0.00;0.00;;;12.00;93.80;;;;;;5007067;28;20065;-69
2023/01/04 10:38:22;;;;;;;0.10;0.10;;;11.90;93.60;;;;;;5008642;28;20052;-68
2023/01/04 10:40:49;;;;;;;0.20;0.20;;;12.00;93.60;;;;;;5009180;28;20042;-69
2023/01/04 10:43:20;;;;;;;0.10;0.10;;;12.00;93.60;;;;;;5006902;28;20113;-70
2023/01/04 10:46:16;;;;;;;5.13;3.47;;;11.90;93.60;;;;;;5009390;28;20417;-70
2023/01/04 10:48:57;;;;;;;1.10;0.98;;;12.00;93.60;;;;;;5001733;28;20081;-70
2023/01/04 10:51:40;;;;;;;0.00;0.00;;;12.00;93.60;;;;;;4992455;28;20056;-69
2023/01/04 10:54:15;;;;;;;3.85;1.98;;;12.00;93.60;;;;;;5010068;28;20112;-69
2023/01/04 10:56:52;;;;;;;0.00;0.00;;;12.00;93.90;;;;;;5009781;28;20046;-69
2023/01/04 10:59:36;;;;;;;0.68;0.65;;;12.00;94.00;;;;;;4992554;28;20042;-69
2023/01/04 11:02:21;;;;;;;0.10;0.10;;;11.80;94.20;;;;;;5008697;28;20050;-69
2023/01/04 11:05:02;;;;;;;0.73;0.70;;;11.60;94.40;;;;;;5008259;28;20041;-69
2023/01/04 11:07:38;;;;;;;0.23;0.23;;;11.60;94.50;;;;;;5009154;28;20037;-69
2023/01/04 11:10:04;;;;;;;3.35;1.52;;;11.60;94.60;;;;;;5007485;28;20295;-68
2023/01/04 11:12:30;;;;;;;0.00;0.00;;;11.70;94.60;;;;;;4989554;28;20046;-68
2023/01/04 11:14:56;;;;;;;0.00;0.00;;;11.70;94.50;;;;;;4979443;28;20046;-69
2023/01/04 11:17:23;;;;;;;2.20;1.90;;;11.80;94.60;;;;;;5000167;28;20411;-68
2023/01/04 11:19:49;;;;;;;0.57;0.57;;;11.70;94.50;;;;;;4990230;28;20053;-69
2023/01/04 11:22:19;;;;;;;0.00;0.00;;;11.80;94.50;;;;;;4998127;28;20041;-68
2023/01/04 11:24:50;;;;;;;0.00;0.00;;;11.80;94.50;;;;;;5009767;28;20049;-68
2023/01/04 11:27:21;;;;;;;0.15;0.15;;;11.80;94.30;;;;;;5000592;28;20050;-68
2023/01/04 11:30:02;;;;;;;0.00;0.00;;;11.80;94.20;;;;;;5008808;28;20048;-68
2023/01/04 11:32:48;;;;;;;0.13;0.13;;;11.90;94.10;;;;;;5009726;28;20046;-69
2023/01/04 11:35:14;;;;;;;1.38;1.27;;;11.80;94.10;;;;;;4992393;28;20048;-68
2023/01/04 11:37:40;;;;;;;0.10;0.10;;;11.80;94.10;;;;;;4992011;28;20034;-68
2023/01/04 11:40:22;;;;;;;1.42;1.38;;;11.80;93.90;;;;;;5009297;28;20519;-68
2023/01/04 11:43:14;;;;;;;0.35;0.32;;;11.80;93.80;;;;;;4977849;28;20054;-69
2023/01/04 11:45:51;;;;;;;0.00;0.00;;;11.90;93.70;;;;;;5009484;28;20487;-68
2023/01/04 11:48:16;;;;;;;0.00;0.00;;;11.90;93.60;;;;;;5009016;28;20214;-69
2023/01/04 11:50:45;;;;;;;0.32;0.32;;;12.00;93.50;;;;;;5008965;28;20133;-68
2023/01/04 11:53:34;;;;;;;0.65;0.43;;;12.00;93.40;;;;;;5009400;28;20057;-69
2023/01/04 11:56:14;;;;;;;0.00;0.00;;;12.00;93.30;;;;;;4989466;28;20471;-69
2023/01/04 11:58:41;;;;;;;0.00;0.00;;;12.00;93.30;;;;;;4989549;28;20089;-68
2023/01/04 12:01:20;;;;;;;0.00;0.00;;;12.10;93.10;;;;;;4972398;28;20050;-68
2023/01/04 12:03:45;;;;;;;0.00;0.00;;;12.10;93.20;;;;;;4999011;28;20765;-69
2023/01/04 12:06:29;;;;;;;0.10;0.10;;;12.00;93.10;;;;;;5009326;28;20081;-69
2023/01/04 12:08:55;;;;;;;0.00;0.00;;;12.10;93.20;;;;;;5007620;28;20042;-68
2023/01/04 12:11:34;;;;;;;0.10;0.10;;;12.00;93.10;;;;;;5009378;28;20122;-68
2023/01/04 12:14:01;;;;;;;0.00;0.00;;;12.00;93.10;;;;;;5009562;28;21254;-68
2023/01/04 12:16:57;;;;;;;1.55;1.23;;;12.00;93.00;;;;;;5010842;28;20129;-69
2023/01/04 12:19:24;;;;;;;0.00;0.00;;;11.90;93.10;;;;;;5005237;28;20133;-68
2023/01/04 12:22:01;;;;;;;1.55;0.85;;;12.00;92.80;;;;;;4971737;28;20132;-68
2023/01/04 12:24:32;;;;;;;0.00;0.00;;;12.00;92.70;;;;;;5002479;28;20120;-69
2023/01/04 12:27:01;;;;;;;0.00;0.00;;;12.00;92.80;;;;;;5012524;28;20046;-68
2023/01/04 12:29:54;;;;;;;1.35;0.63;;;11.90;92.90;;;;;;5012346;28;20493;-69
2023/01/04 12:32:26;;;;;;;0.43;0.43;;;11.90;92.80;;;;;;5012942;28;20042;-69
2023/01/04 12:34:52;;;;;;;0.00;0.00;;;11.90;92.80;;;;;;5009452;28;20050;-69
2023/01/04 12:37:36;;;;;;;0.10;0.10;;;11.90;92.60;;;;;;5011241;28;20050;-68
2023/01/04 12:40:23;;;;;;;0.00;0.00;;;11.80;92.70;;;;;;5010968;28;20510;-69
2023/01/04 12:43:25;;;;;;;0.10;0.10;;;11.80;92.70;;;;;;5006595;28;20052;-70
2023/01/04 12:49:02;;;;;;;;;;;11.90;92.60;;;;;;4931499;29;20143;-69
2023/01/04 12:49:02;;;;;;;0.10;0.10;;;11.90;92.60;;;;;;4995669;28;20004;-68
2023/01/04 12:51:27;;;;;;;0.00;0.00;;;11.90;92.60;;;;;;5007590;28;20494;-69
2023/01/04 12:53:57;;;;;;;0.00;0.00;;;11.80;92.60;;;;;;4992700;28;20067;-69
2023/01/04 12:57:01;;;;;;;0.03;0.03;;;11.90;92.50;;;;;;5010292;28;20450;-69
2023/01/04 12:59:36;;;;;;;0.00;0.00;;;11.70;92.80;;;;;;5012063;28;20133;-69
2023/01/04 13:02:15;;;;;;;0.00;0.00;;;11.90;92.60;;;;;;5011713;28;20476;-68
2023/01/04 13:04:41;;;;;;;0.13;0.13;;;11.80;92.40;;;;;;5012101;28;20412;-68
2023/01/04 13:07:26;;;;;;;0.28;0.28;;;11.80;92.50;;;;;;4988293;28;20085;-69
2023/01/04 13:10:17;;;;;;;0.10;0.10;;;11.80;92.40;;;;;;5009650;28;20052;-69
2023/01/04 13:12:59;;;;;;;0.00;0.00;;;11.80;92.00;;;;;;5007283;28;20056;-70
2023/01/04 13:15:28;;;;;;;;;;;11.80;91.90;;;;;;5008504;28;20049;-69
2023/01/04 13:17:54;;;;;;;0.00;0.00;;;11.80;91.90;;;;;;5010473;28;19922;-69
2023/01/04 13:20:24;;;;;;;0.52;0.52;;;11.80;91.70;;;;;;5009826;28;20096;-69
2023/01/04 13:22:53;;;;;;;6.13;0.55;;;11.80;91.80;;;;;;5009535;28;20077;-69
2023/01/04 13:25:19;;;;;;;0.00;0.00;;;11.80;91.50;;;;;;5009963;28;20423;-69
2023/01/04 13:28:17;;;;;;;0.00;0.00;;;11.90;91.40;;;;;;5010248;28;20061;-68
2023/01/04 13:30:44;;;;;;;20.48;2.45;;;11.80;91.50;;;;;;4984009;28;20137;-68
2023/01/04 13:33:18;;;;;;;5.53;2.53;;;11.90;91.50;;;;;;5009905;28;20042;-69
2023/01/04 13:35:56;;;;;;;0.22;0.22;;;11.80;91.20;;;;;;5009672;28;20042;-69
2023/01/04 13:38:22;;;;;;;0.30;0.28;;;11.90;91.10;;;;;;5009727;28;20046;-69
2023/01/04 13:40:48;;;;;;;0.05;0.05;;;11.80;91.20;;;;;;4990249;28;20038;-69
2023/01/04 13:43:37;;;;;;;2.05;1.95;;;11.90;90.80;;;;;;5010040;28;20048;-69
2023/01/04 13:46:20;;;;;;;2.30;1.67;;;11.90;91.00;;;;;;5009609;28;20522;-68
2023/01/04 13:48:50;;;;;;;0.00;0.00;;;11.80;90.80;;;;;;5009758;28;20671;-68
2023/01/04 13:51:34;;;;;;;0.93;0.93;;;11.80;90.80;;;;;;5009856;28;20117;-68
2023/01/04 13:54:02;;;;;;;2.08;1.35;;;11.90;90.80;;;;;;5006023;28;20048;-68
2023/01/04 13:56:31;;;;;;;0.00;0.00;;;11.80;91.00;;;;;;5009822;28;20038;-68
2023/01/04 13:58:58;;;;;;;0.00;0.00;;;11.80;90.90;;;;;;5009192;28;20045;-69